Silverado, California
Current Conditions -  °F | °C
As of 11:56 AM on Monday 24 Nov 2014 (Local Time) from KAJO Reporting Station
Clear Clear  
Wind Chill: 78°   Ceiling: Unl
Heat Index: 78°   Visibility: 10mi
Dew Point: 10°   Wind: 15mph
Humidity: 8%   Direction: 30°NNE
Pressure: 30.22"   Gusts: 29mph
Location:  33.75°N, 117.64°W
Report Text: KAJO 241956Z AUTO 03013G25KT 10SM CLR 26/M12 A3022 RMK AO2 T02551122 SLP227 $
Loading
Personal Weather Stations






























Interactive Weather Map New forecast layout! Learn more

10-Day Weather Forecast

Advertisements
Track Severe Weather on mobile